createdAt,value
2019-05-07T00:03:25.664Z,100982.80
2019-05-07T00:08:28.128Z,100978.46
2019-05-07T00:13:30.590Z,100979.06
2019-05-07T00:18:33.045Z,100973.27
2019-05-07T00:23:35.498Z,100961.66
2019-05-07T00:28:37.967Z,100963.68
2019-05-07T00:33:40.427Z,100968.20
2019-05-07T00:38:42.875Z,100960.28
2019-05-07T00:43:45.341Z,100963.27
2019-05-07T00:48:47.807Z,100954.86
2019-05-07T00:53:52.051Z,100952.45
2019-05-07T00:58:52.944Z,100950.73
2019-05-07T01:03:55.164Z,100949.34
2019-05-07T01:08:57.608Z,100952.25
2019-05-07T01:14:00.080Z,100947.05
2019-05-07T01:19:02.548Z,100948.19
2019-05-07T01:24:05.001Z,100942.57
2019-05-07T01:29:07.453Z,100938.70
2019-05-07T01:34:12.047Z,100934.45
2019-05-07T01:39:13.118Z,100928.72
2019-05-07T01:44:14.818Z,100932.67
2019-05-07T01:49:17.269Z,100928.28
2019-05-07T01:54:23.532Z,100931.69
2019-05-07T01:59:22.627Z,100920.17
2019-05-07T02:04:33.329Z,100925.17
2019-05-07T02:09:38.547Z,100923.70
2019-05-07T02:14:42.265Z,100928.64
2019-05-07T02:19:43.457Z,100928.52
2019-05-07T02:24:45.918Z,100923.84
2019-05-07T02:29:48.364Z,100922.58
2019-05-07T02:34:54.173Z,100916.34
2019-05-07T02:39:56.097Z,100916.13
2019-05-07T02:45:16.844Z,100914.70
2019-05-07T02:50:28.297Z,100924.91
2019-05-07T02:55:33.431Z,100918.45
2019-05-07T03:00:33.559Z,100921.89
2019-05-07T03:05:35.667Z,100931.23
2019-05-07T03:10:38.227Z,100931.52
2019-05-07T03:15:43.226Z,100929.94
2019-05-07T03:20:53.533Z,100932.02
2019-05-07T03:25:57.422Z,100936.80
2019-05-07T03:31:18.514Z,100931.67
2019-05-07T03:36:25.820Z,100933.21
2019-05-07T03:41:23.389Z,100939.89
2019-05-07T03:46:25.849Z,100940.61
2019-05-07T03:51:28.303Z,100935.97
2019-05-07T03:56:33.024Z,100930.72
2019-05-07T04:01:33.587Z,100930.05
2019-05-07T04:06:35.738Z,100939.88
2019-05-07T04:11:38.187Z,100935.66
2019-05-07T04:16:43.878Z,100935.66
2019-05-07T04:21:43.582Z,100947.02
2019-05-07T04:27:03.935Z,100940.79
2019-05-07T04:32:06.395Z,100948.58
2019-05-07T04:37:08.833Z,100948.98
2019-05-07T04:42:13.256Z,100947.80
2019-05-07T04:47:32.324Z,100950.81
2019-05-07T04:52:25.303Z,100946.69
2019-05-07T04:57:27.774Z,100949.44
2019-05-07T05:02:45.531Z,100956.80
2019-05-07T05:07:47.983Z,100952.27
2019-05-07T05:12:53.376Z,100952.76
2019-05-07T05:17:54.054Z,100950.47
2019-05-07T05:22:55.523Z,100941.59
2019-05-07T05:27:57.985Z,100945.21
2019-05-07T05:33:02.214Z,100950.78
2019-05-07T05:38:03.148Z,100956.63
2019-05-07T05:43:12.719Z,100946.45
2019-05-07T05:48:13.901Z,100946.05
2019-05-07T05:53:34.469Z,100941.05
2019-05-07T05:58:49.229Z,100949.19
2019-05-07T06:04:12.330Z,100942.45
2019-05-07T06:09:32.797Z,100947.25
2019-05-07T06:14:33.510Z,100948.45
2019-05-07T06:19:38.667Z,100948.59
2019-05-07T06:24:44.229Z,100948.75
2019-05-07T06:29:46.685Z,100952.64
2019-05-07T06:34:49.143Z,100954.11
2019-05-07T06:40:09.585Z,100956.89
2019-05-07T06:45:18.199Z,100951.52
2019-05-07T06:50:22.071Z,100944.53
2019-05-07T06:55:23.127Z,100956.24
2019-05-07T07:00:25.584Z,100952.11
2019-05-07T07:05:33.000Z,100939.10
2019-05-07T07:10:52.260Z,100932.98
2019-05-07T07:15:54.123Z,100931.92
2019-05-07T07:20:56.576Z,100931.06
2019-05-07T07:26:05.038Z,100931.72
2019-05-07T07:31:13.364Z,100931.50
2019-05-07T07:36:15.830Z,100932.20
2019-05-07T07:41:18.291Z,100926.55
2019-05-07T07:46:22.153Z,100923.05
2019-05-07T07:51:37.235Z,100922.66
2019-05-07T07:56:52.639Z,100926.91
2019-05-07T08:01:49.442Z,100915.65
2019-05-07T08:07:04.107Z,100914.95
2019-05-07T08:12:06.815Z,100911.58
2019-05-07T08:17:09.170Z,100904.88
2019-05-07T08:22:12.122Z,100898.86
2019-05-07T08:27:15.266Z,100899.65
2019-05-07T08:32:22.119Z,100898.94
2019-05-07T08:37:24.297Z,100902.91
2019-05-07T08:42:24.640Z,100897.34
2019-05-07T08:47:36.141Z,100897.44
2019-05-07T08:52:38.609Z,100885.52
2019-05-07T08:57:42.046Z,100878.05
2019-05-07T09:02:43.531Z,100881.57
2019-05-07T09:07:45.993Z,100869.14
2019-05-07T09:12:48.468Z,100865.38
2019-05-07T09:17:52.681Z,100856.39
2019-05-07T09:22:53.378Z,100852.97
2019-05-07T09:27:55.846Z,100849.20
2019-05-07T09:32:58.363Z,100848.59
2019-05-07T09:38:03.022Z,100846.98
2019-05-07T09:43:03.294Z,100835.14
2019-05-07T09:48:05.729Z,100823.95
2019-05-07T09:53:08.195Z,100819.47
2019-05-07T09:58:12.588Z,100816.44
2019-05-07T10:03:13.119Z,100811.35
2019-05-07T10:08:15.588Z,100801.77
2019-05-07T10:13:18.042Z,100789.76
2019-05-07T10:18:22.700Z,100776.27
2019-05-07T10:23:23.391Z,100761.72
2019-05-07T10:28:25.458Z,100759.45
2019-05-07T10:33:27.936Z,100763.72
2019-05-07T10:38:30.397Z,100753.28
2019-05-07T10:43:32.965Z,100754.64
2019-05-07T10:48:38.390Z,100746.31
2019-05-07T10:53:42.423Z,100742.73
2019-05-07T10:58:43.355Z,100741.18
2019-05-07T11:03:45.812Z,100735.33
2019-05-07T11:08:48.379Z,100740.22
2019-05-07T11:13:55.334Z,100735.97
2019-05-07T11:18:53.303Z,100723.69
2019-05-07T11:23:55.891Z,100711.54
2019-05-07T11:28:58.296Z,100701.77
2019-05-07T11:34:02.802Z,100693.23
2019-05-07T11:39:03.225Z,100686.14
2019-05-07T11:44:05.685Z,100683.91
2019-05-07T11:49:17.389Z,100685.52
2019-05-07T11:54:19.860Z,100677.15
2019-05-07T11:59:29.349Z,100668.72
2019-05-07T12:04:32.072Z,100662.25
2019-05-07T12:09:34.292Z,100661.30
2019-05-07T12:14:36.754Z,100662.11
2019-05-07T12:19:39.211Z,100654.10
2019-05-07T12:24:41.943Z,100642.09
2019-05-07T12:29:44.129Z,100637.37
2019-05-07T12:34:46.593Z,100630.83
2019-05-07T12:39:49.038Z,100629.27
2019-05-07T12:44:51.805Z,100621.83
2019-05-07T12:49:53.949Z,100627.97
2019-05-07T12:54:56.415Z,100614.78
2019-05-07T12:59:59.022Z,100616.39
2019-05-07T13:05:02.923Z,100607.42
2019-05-07T13:10:03.987Z,100597.27
2019-05-07T13:15:06.462Z,100597.63
2019-05-07T13:20:08.919Z,100594.48
2019-05-07T13:25:11.380Z,100590.25
2019-05-07T13:30:13.848Z,100582.41
2019-05-07T13:35:16.315Z,100585.75
2019-05-07T13:40:21.456Z,100575.00
2019-05-07T13:45:44.516Z,100567.18
2019-05-07T13:50:44.636Z,100562.87
2019-05-07T13:55:47.093Z,100558.62
2019-05-07T14:00:52.513Z,100558.41
2019-05-07T14:05:54.974Z,100549.78
2019-05-07T14:10:57.429Z,100542.44
2019-05-07T14:16:06.108Z,100536.62
2019-05-07T14:21:08.570Z,100533.44
2019-05-07T14:26:11.023Z,100520.27
2019-05-07T14:31:13.495Z,100518.55
2019-05-07T14:36:15.971Z,100516.66
2019-05-07T14:41:18.425Z,100518.05
2019-05-07T14:46:20.895Z,100506.10
2019-05-07T14:51:23.370Z,100497.39
2019-05-07T14:56:25.832Z,100496.66
2019-05-07T15:01:28.315Z,100485.54
2019-05-07T15:06:32.561Z,100492.92
2019-05-07T15:11:33.287Z,100485.69
2019-05-07T15:16:35.703Z,100478.70
2019-05-07T15:21:38.296Z,100475.38
2019-05-07T15:26:41.952Z,100466.53
2019-05-07T15:31:55.522Z,100468.00
2019-05-07T15:36:57.989Z,100460.04
2019-05-07T15:42:02.243Z,100455.38
2019-05-07T15:47:02.921Z,100453.35
2019-05-07T15:52:05.423Z,100444.20
2019-05-07T15:57:07.857Z,100446.22
2019-05-07T16:02:12.263Z,100442.70
2019-05-07T16:07:13.250Z,100422.09
2019-05-07T16:12:15.277Z,100417.60
2019-05-07T16:17:24.546Z,100418.41
2019-05-07T16:22:29.149Z,100416.55
2019-05-07T16:27:31.814Z,100408.51
2019-05-07T16:32:34.088Z,100409.58
2019-05-07T16:37:36.568Z,100396.41
2019-05-07T16:42:39.039Z,100396.70
2019-05-07T16:47:41.506Z,100393.40
2019-05-07T16:52:43.987Z,100389.06
2019-05-07T16:57:55.443Z,100379.56
2019-05-07T17:02:57.922Z,100373.53
2019-05-07T17:08:02.260Z,100372.27
2019-05-07T17:13:02.978Z,100372.09
2019-05-07T17:18:05.321Z,100363.30
2019-05-07T17:23:07.782Z,100369.00
2019-05-07T17:28:12.478Z,100364.72
2019-05-07T17:33:13.011Z,100360.02
2019-05-07T17:38:15.202Z,100350.05
2019-05-07T17:43:17.660Z,100355.85
2019-05-07T17:48:20.137Z,100353.95
2019-05-07T17:53:22.658Z,100343.00
2019-05-07T17:58:25.065Z,100343.84
2019-05-07T18:03:33.456Z,100338.73
2019-05-07T18:08:35.986Z,100331.73
2019-05-07T18:13:38.439Z,100334.01
2019-05-07T18:18:43.078Z,100323.27
2019-05-07T18:23:43.485Z,100327.63
2019-05-07T18:28:45.857Z,100330.61
2019-05-07T18:33:48.433Z,100336.91
2019-05-07T18:38:52.774Z,100340.47
2019-05-07T18:43:54.706Z,100341.83
2019-05-07T18:48:55.847Z,100340.66
2019-05-07T18:53:58.395Z,100347.54
2019-05-07T18:59:02.102Z,100342.20
2019-05-07T19:04:03.246Z,100339.02
2019-05-07T19:09:05.730Z,100340.38
2019-05-07T19:14:08.257Z,100337.40
2019-05-07T19:19:12.487Z,100331.08
2019-05-07T19:24:13.201Z,100341.65
2019-05-07T19:29:15.661Z,100344.40
2019-05-07T19:34:18.137Z,100346.84
2019-05-07T19:39:20.655Z,100339.04
2019-05-07T19:44:23.125Z,100340.81
2019-05-07T19:49:25.595Z,100345.25
2019-05-07T19:54:28.102Z,100334.05
2019-05-07T19:59:32.578Z,100329.55
2019-05-07T20:04:33.211Z,100323.78
2019-05-07T20:09:35.682Z,100327.27
2019-05-07T20:14:38.153Z,100317.86
2019-05-07T20:19:41.762Z,100313.02
2019-05-07T20:24:43.105Z,100306.39
2019-05-07T20:29:45.562Z,100295.45
2019-05-07T20:34:48.059Z,100294.89
2019-05-07T20:39:52.396Z,100292.36
2019-05-07T20:44:53.031Z,100287.83
2019-05-07T20:49:55.519Z,100281.27
2019-05-07T20:55:04.136Z,100279.83
2019-05-07T21:00:06.604Z,100269.91
2019-05-07T21:05:09.077Z,100264.71
2019-05-07T21:10:12.654Z,100245.30
2019-05-07T21:15:14.031Z,100241.52
2019-05-07T21:20:16.485Z,100240.84
2019-05-07T21:25:18.959Z,100233.91
2019-05-07T21:30:22.322Z,100234.13
2019-05-07T21:35:23.945Z,100237.55
2019-05-07T21:40:26.327Z,100227.72
2019-05-07T21:45:28.803Z,100220.06
2019-05-07T21:50:31.260Z,100205.92
2019-05-07T21:55:36.660Z,100200.60
2019-05-07T22:00:39.113Z,100204.34
2019-05-07T22:05:44.106Z,100192.78
2019-05-07T22:10:44.050Z,100187.88
2019-05-07T22:15:46.510Z,100188.25
2019-05-07T22:20:48.976Z,100174.66
2019-05-07T22:25:51.576Z,100177.03
2019-05-07T22:30:54.034Z,100170.75
2019-05-07T22:36:01.762Z,100155.38
2019-05-07T22:41:02.129Z,100150.97
2019-05-07T22:46:03.042Z,100136.92
2019-05-07T22:51:05.510Z,100126.94
2019-05-07T22:56:07.989Z,100121.84
2019-05-07T23:01:13.237Z,100111.14
2019-05-07T23:06:15.641Z,100104.34
2019-05-07T23:11:18.098Z,100096.46
2019-05-07T23:16:22.941Z,100085.69
2019-05-07T23:21:24.661Z,100078.79
2019-05-07T23:26:25.469Z,100078.58
2019-05-07T23:31:27.927Z,100062.09
2019-05-07T23:36:30.388Z,100068.41
2019-05-07T23:41:33.060Z,100060.05
2019-05-07T23:46:35.332Z,100067.69
2019-05-07T23:51:37.791Z,100069.77
2019-05-07T23:56:42.470Z,100061.31
